TimeCST,TemperatureF,Dew PointF,Humidity,Sea Level PressureIn,VisibilityMPH,Wind Direction,Wind SpeedMPH,Gust SpeedMPH,PrecipitationIn,Events,Conditions,WindDirDegrees,DateUTC
12:10 AM,32.0,26.6,80,30.42,10.0,South,10.4,-,N/A,,Clear,180,2013-01-18 06:10:00
12:30 AM,32.0,24.8,75,30.42,10.0,South,11.5,-,N/A,,Clear,180,2013-01-18 06:30:00
12:50 AM,32.0,26.6,80,30.42,10.0,South,11.5,-,N/A,,Clear,190,2013-01-18 06:50:00
1:10 AM,28.4,24.8,86,30.42,10.0,SSW,10.4,-,N/A,,Clear,200,2013-01-18 07:10:00
1:30 AM,28.4,24.8,86,30.41,10.0,SSW,11.5,-,N/A,,Clear,200,2013-01-18 07:30:00
1:50 AM,28.4,24.8,86,30.41,10.0,SSW,10.4,-,N/A,,Clear,210,2013-01-18 07:50:00
2:10 AM,28.4,24.8,86,30.41,10.0,SSW,9.2,-,N/A,,Clear,210,2013-01-18 08:10:00
2:50 AM,30.2,26.6,86,30.40,10.0,SSW,10.4,-,N/A,,Clear,200,2013-01-18 08:50:00
3:10 AM,32.0,26.6,80,30.39,10.0,South,12.7,-,N/A,,Clear,190,2013-01-18 09:10:00
3:30 AM,32.0,26.6,80,30.38,10.0,South,12.7,-,N/A,,Clear,190,2013-01-18 09:30:00
3:50 AM,32.0,26.6,80,30.37,10.0,South,11.5,-,N/A,,Clear,190,2013-01-18 09:50:00
4:10 AM,32.0,26.6,80,30.36,10.0,SSW,10.4,-,N/A,,Clear,210,2013-01-18 10:10:00
4:30 AM,32.0,28.4,87,30.35,10.0,SSW,11.5,-,N/A,,Clear,210,2013-01-18 10:30:00
4:50 AM,32.0,28.4,87,30.35,10.0,SSW,11.5,-,N/A,,Clear,210,2013-01-18 10:50:00
5:10 AM,32.0,26.6,80,30.34,10.0,SSW,11.5,-,N/A,,Clear,200,2013-01-18 11:10:00
5:30 AM,32.0,26.6,80,30.34,10.0,South,10.4,-,N/A,,Clear,190,2013-01-18 11:30:00
5:50 AM,32.0,28.4,87,30.33,10.0,South,10.4,-,N/A,,Clear,190,2013-01-18 11:50:00
6:10 AM,32.0,26.6,80,30.33,10.0,South,6.9,-,N/A,,Clear,190,2013-01-18 12:10:00
6:50 AM,32.0,26.6,80,30.32,10.0,South,9.2,-,N/A,,Clear,180,2013-01-18 12:50:00
7:10 AM,30.2,26.6,86,30.32,10.0,SSW,8.1,-,N/A,,Clear,210,2013-01-18 13:10:00
7:30 AM,33.8,28.4,81,30.32,10.0,SSW,12.7,-,N/A,,Clear,210,2013-01-18 13:30:00
7:50 AM,35.6,28.4,75,30.31,10.0,SSW,13.8,-,N/A,,Clear,210,2013-01-18 13:50:00
8:10 AM,37.4,28.4,70,30.31,10.0,SW,16.1,-,N/A,,Clear,220,2013-01-18 14:10:00
8:30 AM,39.2,30.2,70,30.31,10.0,SW,18.4,-,N/A,,Clear,220,2013-01-18 14:30:00
8:50 AM,39.2,30.2,70,30.31,10.0,SSW,16.1,-,N/A,,Clear,210,2013-01-18 14:50:00
9:10 AM,41.0,32.0,70,30.32,10.0,SW,16.1,21.9,N/A,,Clear,220,2013-01-18 15:10:00
9:50 AM,46.4,32.0,57,30.32,10.0,SW,21.9,29.9,N/A,,Clear,220,2013-01-18 15:50:00
10:10 AM,48.2,30.2,50,30.32,10.0,SW,23.0,32.2,N/A,,Clear,220,2013-01-18 16:10:00
10:30 AM,50.0,30.2,47,30.32,10.0,SW,26.5,33.4,N/A,,Clear,220,2013-01-18 16:30:00
10:50 AM,51.8,28.4,41,30.31,10.0,SW,27.6,40.3,N/A,,Clear,220,2013-01-18 16:50:00
11:10 AM,53.6,28.4,38,30.30,10.0,SSW,26.5,35.7,N/A,,Clear,210,2013-01-18 17:10:00
11:30 AM,53.6,28.4,38,30.29,10.0,SW,25.3,36.8,N/A,,Clear,220,2013-01-18 17:30:00
11:50 AM,55.4,30.2,38,30.27,10.0,SW,24.2,38.0,N/A,,Clear,220,2013-01-18 17:50:00
12:10 PM,55.4,30.2,38,30.25,10.0,SSW,25.3,33.4,N/A,,Clear,210,2013-01-18 18:10:00
12:30 PM,55.4,28.4,36,30.23,10.0,SW,29.9,36.8,N/A,,Clear,220,2013-01-18 18:30:00
12:55 PM,57.2,28.4,33,30.20,10.0,SW,31.1,35.7,N/A,,Clear,220,2013-01-18 18:55:00
1:10 PM,57.2,28.4,33,30.19,10.0,SSW,26.5,34.5,N/A,,Clear,210,2013-01-18 19:10:00
1:30 PM,59.0,30.2,34,30.17,10.0,SSW,26.5,34.5,N/A,,Clear,210,2013-01-18 19:30:00
1:50 PM,59.0,30.2,34,30.17,10.0,SSW,24.2,34.5,N/A,,Clear,210,2013-01-18 19:50:00
2:15 PM,59.0,28.4,31,30.15,10.0,SSW,23.0,38.0,N/A,,Clear,210,2013-01-18 20:15:00
2:30 PM,60.8,28.4,29,30.14,10.0,SW,29.9,36.8,N/A,,Clear,220,2013-01-18 20:30:00
2:50 PM,62.6,30.2,30,30.14,10.0,SW,28.8,35.7,N/A,,Clear,220,2013-01-18 20:50:00
3:10 PM,62.6,30.2,30,30.13,10.0,SSW,24.2,33.4,N/A,,Clear,210,2013-01-18 21:10:00
3:30 PM,62.6,30.2,30,30.12,10.0,SW,24.2,33.4,N/A,,Clear,220,2013-01-18 21:30:00
3:50 PM,62.6,28.4,27,30.12,10.0,SW,25.3,33.4,N/A,,Clear,220,2013-01-18 21:50:00
4:10 PM,62.6,30.2,30,30.12,10.0,SW,21.9,31.1,N/A,,Clear,220,2013-01-18 22:10:00
4:30 PM,60.8,30.2,31,30.11,10.0,SSW,21.9,31.1,N/A,,Clear,210,2013-01-18 22:30:00
4:50 PM,59.0,30.2,34,30.11,10.0,SSW,21.9,28.8,N/A,,Clear,210,2013-01-18 22:50:00
5:10 PM,59.0,30.2,34,30.11,10.0,SSW,17.3,25.3,N/A,,Clear,210,2013-01-18 23:10:00
5:30 PM,57.2,30.2,36,30.11,10.0,SSW,17.3,-,N/A,,Clear,210,2013-01-18 23:30:00
5:50 PM,55.4,30.2,38,30.11,10.0,SSW,15.0,-,N/A,,Clear,200,2013-01-18 23:50:00
6:10 PM,53.6,30.2,41,30.11,10.0,SSW,17.3,-,N/A,,Clear,200,2013-01-19 00:10:00
6:30 PM,51.8,30.2,44,30.12,10.0,SSW,13.8,-,N/A,,Partly Cloudy,200,2013-01-19 00:30:00
6:50 PM,48.2,30.2,50,30.12,10.0,SSW,15.0,-,N/A,,Partly Cloudy,200,2013-01-19 00:50:00
7:10 PM,48.2,30.2,50,30.12,10.0,South,11.5,-,N/A,,Partly Cloudy,190,2013-01-19 01:10:00
7:30 PM,46.4,32.0,57,30.12,10.0,South,12.7,-,N/A,,Partly Cloudy,190,2013-01-19 01:30:00
7:50 PM,44.6,30.2,57,30.12,10.0,South,12.7,-,N/A,,Partly Cloudy,190,2013-01-19 01:50:00
8:10 PM,44.6,32.0,61,30.12,10.0,South,12.7,-,N/A,,Partly Cloudy,190,2013-01-19 02:10:00
8:30 PM,46.4,32.0,57,30.12,10.0,South,12.7,-,N/A,,Clear,190,2013-01-19 02:30:00
8:50 PM,46.4,32.0,57,30.12,10.0,SSW,13.8,-,N/A,,Partly Cloudy,200,2013-01-19 02:50:00
9:10 PM,46.4,32.0,57,30.12,10.0,SSW,16.1,-,N/A,,Partly Cloudy,210,2013-01-19 03:10:00
9:30 PM,46.4,32.0,57,30.11,10.0,SSW,12.7,-,N/A,,Scattered Clouds,210,2013-01-19 03:30:00
9:50 PM,46.4,32.0,57,30.11,10.0,SSW,13.8,-,N/A,,Mostly Cloudy,210,2013-01-19 03:50:00
10:10 PM,44.6,32.0,61,30.11,10.0,SSW,15.0,-,N/A,,Mostly Cloudy,210,2013-01-19 04:10:00
10:30 PM,46.4,32.0,57,30.10,10.0,SSW,15.0,-,N/A,,Overcast,210,2013-01-19 04:30:00
10:50 PM,44.6,32.0,61,30.10,10.0,SSW,12.7,-,N/A,,Mostly Cloudy,210,2013-01-19 04:50:00
11:10 PM,42.8,32.0,66,30.10,10.0,SSW,13.8,-,N/A,,Mostly Cloudy,210,2013-01-19 05:10:00
11:30 PM,42.8,32.0,66,30.09,10.0,SSW,12.7,-,N/A,,Mostly Cloudy,210,2013-01-19 05:30:00
11:50 PM,44.6,32.0,61,30.08,10.0,SSW,16.1,-,N/A,,Mostly Cloudy,210,2013-01-19 05:50:00